METAR Data
IDs: Format: Raw Decoded Include TAF

Data at: 1304 UTC 11 Dec 2018

KGYB 111255Z AUTO 00000KT 10SM CLR M01/M02 A3041 RMK AO2 T10111016
KGYB 111235Z AUTO 00000KT 10SM CLR M01/M01 A3040 RMK AO2 T10061011
KGYB 111215Z AUTO 00000KT 10SM CLR M01/M01 A3040 RMK AO2 T10071012
KGYB 111155Z AUTO 00000KT 10SM CLR M01/M01 A3040 RMK AO2 T10081015 10020 21008
KGYB 111135Z AUTO 00000KT 10SM CLR 00/M01 A3040 RMK AO2 T10031010
KGYB 111115Z AUTO 00000KT 10SM CLR 00/M01 A3040 RMK AO2 T10031010
KGYB 111055Z AUTO 00000KT 10SM CLR 00/M01 A3040 RMK AO2 T10021009
KGYB 111035Z AUTO 00000KT 10SM CLR 00/00 A3040 RMK AO2 T00011005
KGYB 111015Z AUTO 00000KT 10SM CLR 00/M01 A3039 RMK AO2 T00001006
KGYB 110955Z AUTO 00000KT 10SM CLR 00/M01 A3039 RMK AO2 T00001006
KGYB 110935Z AUTO 00000KT 10SM CLR 00/M01 A3039 RMK AO2 T10021009
KGYB 110915Z AUTO 00000KT 10SM CLR 00/00 A3039 RMK AO2 T00001003
KGYB 110855Z AUTO 00000KT 10SM CLR 00/00 A3039 RMK AO2 T00001005
KGYB 110835Z AUTO 00000KT 10SM CLR 00/00 A3040 RMK AO2 T00041002
KGYB 110815Z AUTO 00000KT 10SM CLR 01/00 A3040 RMK AO2 T00061001
KGYB 110755Z AUTO 00000KT 10SM CLR 00/00 A3040 RMK AO2 T00031003
KGYB 110735Z AUTO 00000KT 10SM CLR 01/00 A3040 RMK AO2 T00070000
KGYB 110715Z AUTO 00000KT 10SM CLR 01/00 A3041 RMK AO2 T00090000
KGYB 110655Z AUTO 00000KT 10SM CLR 01/00 A3041 RMK AO2 T00110000
KGYB 110635Z AUTO 00000KT 10SM CLR 01/00 A3041 RMK AO2 T00140001
KGYB 110615Z AUTO 00000KT 10SM CLR 02/01 A3040 RMK AO2 T00180007
KGYB 110555Z AUTO 00000KT 10SM CLR 02/01 A3041 RMK AO2 T00180005 10091 20013 401400010
KGYB 110535Z AUTO 00000KT 10SM CLR 02/00 A3041 RMK AO2 T00200002
KGYB 110515Z AUTO 00000KT 10SM CLR 02/00 A3041 RMK AO2 T00150002
KGYB 110455Z AUTO 00000KT 10SM CLR 02/01 A3041 RMK AO2 T00210006
KGYB 110435Z AUTO 00000KT 10SM CLR 02/01 A3041 RMK AO2 T00210005
KGYB 110415Z AUTO 00000KT 10SM CLR 03/01 A3041 RMK AO2 T00250011
KGYB 110355Z AUTO 00000KT 10SM CLR 03/01 A3040 RMK AO2 T00300010
KGYB 110335Z AUTO 00000KT 10SM CLR 03/01 A3040 RMK AO2 T00310010
KGYB 110315Z AUTO 00000KT 10SM CLR 03/01 A3040 RMK AO2 T00310008
KGYB 110255Z AUTO 00000KT 10SM CLR 04/01 A3040 RMK AO2 T00350011
KGYB 110235Z AUTO 00000KT 10SM CLR 04/01 A3040 RMK AO2 T00390012
KGYB 110215Z AUTO 00000KT 10SM CLR 04/01 A3040 RMK AO2 T00440013
KGYB 110155Z AUTO 00000KT 10SM CLR 05/01 A3040 RMK AO2 T00510011
KGYB 110135Z AUTO 00000KT 10SM CLR 05/02 A3040 RMK AO2 T00480016
KGYB 110115Z AUTO 00000KT 10SM CLR 06/02 A3040 RMK AO2 T00560020
KGYB 110055Z AUTO 00000KT 10SM CLR 06/02 A3040 RMK AO2 T00610019
KGYB 110035Z AUTO 00000KT 10SM CLR 07/02 A3039 RMK AO2 T00700019
KGYB 110015Z AUTO 00000KT 10SM CLR 08/02 A3038 RMK AO2 T00790017
KGYB 102355Z AUTO 00000KT 10SM CLR 09/01 A3038 RMK AO2 T00940013 10140 20094
KGYB 102335Z AUTO 00000KT 10SM CLR 11/02 A3037 RMK AO2 T01080016
KGYB 102315Z AUTO 00000KT 10SM CLR 13/M01 A3037 RMK AO2 T01331012
KGYB 102255Z AUTO 00000KT 10SM CLR 13/M01 A3037 RMK AO2 T01331012
KGYB 102235Z AUTO 00000KT 10SM CLR 14/M01 A3037 RMK AO2 T01361013
KGYB 102215Z AUTO 00000KT 10SM CLR 14/M01 A3037 RMK AO2 T01401011
KGYB 102155Z AUTO 00000KT 10SM CLR 14/M01 A3037 RMK AO2 T01401014
KGYB 102135Z AUTO 32004KT 10SM CLR 14/M02 A3037 RMK AO2 T01401019
KGYB 102115Z AUTO 36004KT 10SM CLR 14/M02 A3037 RMK AO2 T01371017
KGYB 102055Z AUTO 04003KT 10SM CLR 14/M02 A3036 RMK AO2 T01351020
KGYB 102035Z AUTO 00000KT 10SM CLR 13/M02 A3036 RMK AO2 T01331021
KGYB 102015Z AUTO 34006KT 10SM CLR 13/M01 A3037 RMK AO2 T01331015
KGYB 101955Z AUTO 33003KT 10SM CLR 13/M02 A3037 RMK AO2 T01271020
KGYB 101935Z AUTO 00000KT 10SM CLR 12/M02 A3037 RMK AO2 T01241023
KGYB 101915Z AUTO 00000KT 10SM CLR 12/M01 A3039 RMK AO2 T01231010
KGYB 101855Z AUTO 02004KT 10SM CLR 12/M02 A3040 RMK AO2 T01201017
KGYB 101835Z AUTO 34004KT 10SM CLR 12/M02 A3041 RMK AO2 T01151017
KGYB 101815Z AUTO 34005KT 10SM CLR 11/M01 A3041 RMK AO2 T01101014
KGYB 101755Z AUTO 35005KT 10SM CLR 11/00 A3042 RMK AO2 T01071005 10107 20010
KGYB 101735Z AUTO 33004KT 10SM CLR 10/00 A3043 RMK AO2 T01001004
KGYB 101715Z AUTO 35004KT 10SM CLR 10/00 A3043 RMK AO2 T00951001
KGYB 101655Z AUTO 32003KT 10SM CLR 09/00 A3043 RMK AO2 T00900002
KGYB 101635Z AUTO 00000KT 10SM CLR 08/00 A3044 RMK AO2 T00800001
KGYB 101615Z AUTO 02003KT 10SM CLR 07/00 A3044 RMK AO2 T00720001
KGYB 101555Z AUTO 36003KT 10SM CLR 07/00 A3044 RMK AO2 T00661001
KGYB 101535Z AUTO 35005KT 10SM CLR 06/00 A3044 RMK AO2 T00580001
KGYB 101515Z AUTO 34006KT 10SM CLR 05/00 A3043 RMK AO2 T00500000
KGYB 101455Z AUTO 33005KT 10SM CLR 04/00 A3043 RMK AO2 T00401001
KGYB 101435Z AUTO 33006KT 10SM CLR 03/00 A3042 RMK AO2 T00311002
KGYB 101415Z AUTO 33005KT 10SM CLR 03/00 A3042 RMK AO2 T00251005
KGYB 101355Z AUTO 32006KT 10SM CLR 02/00 A3041 RMK AO2 T00201005
KGYB 101335Z AUTO 32005KT 10SM CLR 02/M01 A3041 RMK AO2 T00171007
KGYB 101315Z AUTO 32005KT 10SM CLR 02/00 A3040 RMK AO2 T00151005
KGYB 101255Z AUTO 32004KT 10SM CLR 02/00 A3039 RMK AO2 T00151002
KGYB 101235Z AUTO 31003KT 10SM CLR 01/00 A3039 RMK AO2 T00121005
KGYB 101215Z AUTO 32004KT 10SM CLR 02/00 A3038 RMK AO2 T00171002
KGYB 101155Z AUTO 33005KT 10SM CLR 02/00 A3037 RMK AO2 T00180000 10050 20018
KGYB 101135Z AUTO 32005KT 10SM CLR 02/00 A3037 RMK AO2 T00200000
KGYB 101115Z AUTO 33004KT 10SM CLR 02/00 A3037 RMK AO2 T00210000
KGYB 101055Z AUTO 33003KT 10SM CLR 02/00 A3037 RMK AO2 T00230001
KGYB 101035Z AUTO 34004KT 10SM CLR 03/01 A3037 RMK AO2 T00260005
KGYB 101015Z AUTO 34005KT 10SM CLR 03/01 A3037 RMK AO2 T00280007
KGYB 100955Z AUTO 34005KT 10SM CLR 03/01 A3037 RMK AO2 T00280010
KGYB 100935Z AUTO 33004KT 10SM CLR 03/01 A3037 RMK AO2 T00300012
KGYB 100915Z AUTO 33004KT 10SM CLR 03/02 A3037 RMK AO2 T00320015
KGYB 100855Z AUTO 34004KT 10SM CLR 04/02 A3037 RMK AO2 T00350016
KGYB 100835Z AUTO 35004KT 10SM CLR 04/02 A3037 RMK AO2 T00360018
KGYB 100815Z AUTO 34004KT 10SM CLR 04/02 A3038 RMK AO2 T00380020
KGYB 100755Z AUTO 34004KT 10SM CLR 04/02 A3038 RMK AO2 T00410021
KGYB 100735Z AUTO 35004KT 10SM CLR 05/02 A3038 RMK AO2 T00450022
KGYB 100715Z AUTO 34006KT 10SM CLR 05/03 A3038 RMK AO2 T00460025
KGYB 100655Z AUTO 33004KT 10SM CLR 05/03 A3038 RMK AO2 T00460026
KGYB 100635Z AUTO 32005KT 10SM CLR 05/03 A3039 RMK AO2 T00490028
KGYB 100615Z AUTO 32004KT 10SM CLR 05/03 A3039 RMK AO2 T00480030
KGYB 100555Z AUTO 31004KT 10SM CLR 04/03 A3038 RMK AO2 T00400026 10081 20034 400910034
KGYB 100535Z AUTO 30003KT 10SM CLR 05/03 A3038 RMK AO2 T00470028
KGYB 100515Z AUTO 32004KT 10SM CLR 05/03 A3038 RMK AO2 T00530031
KGYB 100455Z AUTO 32004KT 10SM CLR 05/03 A3039 RMK AO2 T00510032
KGYB 100435Z AUTO 31003KT 10SM CLR 04/03 A3038 RMK AO2 T00370027
KGYB 100415Z AUTO 00000KT 10SM CLR 04/02 A3038 RMK AO2 T00430024
KGYB 100355Z AUTO 33003KT 10SM CLR 05/03 A3037 RMK AO2 T00530030
KGYB 100335Z AUTO 33003KT 10SM CLR 05/03 A3038 RMK AO2 T00480030
KGYB 100315Z AUTO 00000KT 10SM SCT027 06/03 A3038 RMK AO2 T00550031
KGYB 100255Z AUTO 33003KT 10SM SCT027 06/03 A3037 RMK AO2 T00590030
KGYB 100235Z AUTO 35003KT 10SM CLR 07/03 A3037 RMK AO2 T00650032
KGYB 100215Z AUTO 36004KT 10SM BKN023 07/04 A3036 RMK AO2 T00700035
KGYB 100155Z AUTO 36004KT 10SM OVC023 07/04 A3035 RMK AO2 T00730036
KGYB 100135Z AUTO 01004KT 10SM OVC021 07/04 A3035 RMK AO2 T00730035
KGYB 100115Z AUTO 01005KT 10SM OVC021 07/04 A3035 RMK AO2 T00730035